Time;durP1;ratioP1;P1;durP2;ratioP2;P2;SDS_P1;SDS_P2;PMS_P1;PMS_P2;Temp;Humidity;BMP_temperature;BMP_pressure;BME280_temperature;BME280_humidity;BME280_pressure;Samples;Min_cycle;Max_cycle;Signal;HPM_P1;HPM_P2
2024/02/01 00:00:33;;;;;;;;;;;;;;;5.49;100.00;100984.06;4908057;29;19924;-79
2024/02/01 00:02:58;;;;;;;;;;;;;;;5.53;100.00;100970.00;4908057;29;19924;-86
2024/02/01 00:05:24;;;;;;;;;;;;;;;5.54;100.00;100969.13;4908000;29;20280;-79
2024/02/01 00:07:49;;;;;;;;;;;;;;;5.44;100.00;100970.03;4908214;29;19927;-80
2024/02/01 00:10:14;;;;;;;;;;;;;;;5.49;100.00;100986.69;4906715;29;19971;-80
2024/02/01 00:12:40;;;;;;;;;;;;;;;5.51;100.00;100987.53;4908167;29;19965;-80
2024/02/01 00:15:06;;;;;;;;;;;;;;;5.52;100.00;100989.31;4907615;29;19926;-79
2024/02/01 00:17:31;;;;;;;;;;;;;;;5.49;100.00;100985.78;4908437;29;19919;-79
2024/02/01 00:19:56;;;;;;;;;;;;;;;5.50;100.00;100979.66;4890579;29;19955;-79
2024/02/01 00:22:21;;;;;;;;;;;;;;;5.53;100.00;100971.75;4907536;29;19923;-79
2024/02/01 09:03:16;;;;;;;;;;;;;;;5.55;100.00;100983.13;5689463;23;19935;-80
2024/02/01 09:05:45;;;;;;;;;;;;;;;5.53;100.00;100975.25;4925921;29;19965;-82
2024/02/01 09:08:15;;;;;;;;;;;;;;;5.53;100.00;100982.28;4908595;29;20383;-81
2024/02/01 09:10:50;;;;;;;;;;;;;;;5.58;100.00;100978.72;4908272;29;19919;-85
2024/02/01 09:13:19;;;;;;;;;;;;;;;5.55;100.00;100978.78;4926193;29;19926;-85
2024/02/01 09:15:45;;;;;;;;;;;;;;;5.58;100.00;100976.09;4925478;29;20460;-86
2024/02/01 09:18:10;;;;;;;;;;;;;;;5.56;100.00;100975.25;4924568;29;20006;-83
2024/02/01 09:20:35;;;;;;;;;;;;;;;5.53;100.00;100977.88;4925623;29;19923;-81
2024/02/01 09:23:00;;;;;;;;;;;;;;;5.56;100.00;100980.50;4925126;29;19919;-79
2024/02/01 09:25:26;;;;;;;;;;;;;;;5.57;100.00;100995.41;4925736;29;20013;-81
2024/02/01 09:27:54;;;;;;;;;;;;;;;5.55;100.00;100989.28;4925914;29;19927;-78
2024/02/01 09:30:20;;;;;;;;;;;;;;;5.56;100.00;100985.75;4924523;29;19922;-83
2024/02/01 09:32:49;;;;;;;;;;;;;;;5.53;100.00;100990.16;4907111;29;19973;-81
2024/02/01 09:35:15;;;;;;;;;;;;;;;5.54;100.00;100986.66;4908113;29;19923;-83
2024/02/01 09:37:40;;;;;;;;;;;;;;;5.56;100.00;100988.41;4925296;29;20297;-77
2024/02/01 09:40:10;;;;;;;;;;;;;;;5.58;100.00;100998.91;4925408;29;19919;-79
2024/02/01 09:42:36;;;;;;;;;;;;;;;5.56;100.00;101001.53;4925325;29;20000;-85
2024/02/01 09:45:02;;;;;;;;;;;;;;;5.57;100.00;101003.31;4907820;29;19994;-83
2024/02/01 09:47:28;;;;;;;;;;;;;;;5.51;100.00;101000.69;4924449;29;20366;-83
2024/02/01 09:49:54;;;;;;;;;;;;;;;5.62;100.00;100996.28;4925456;29;19986;-77
2024/02/01 09:52:19;;;;;;;;;;;;;;;5.63;100.00;101002.38;4924228;29;19919;-82
2024/02/01 09:54:46;;;;;;;;;;;;;;;5.60;100.00;101000.66;4925405;29;19923;-81
2024/02/01 09:57:15;;;;;;;;;;;;;;;5.56;100.00;101000.69;4925560;29;19930;-82
2024/02/01 09:59:41;;;;;;;;;;;;;;;5.55;100.00;101010.34;4924198;29;19919;-77
2024/02/01 10:02:10;;;;;;;;;;;;;;;5.57;100.00;100997.19;4924072;29;20392;-83
2024/02/01 10:04:35;;;;;;;;;;;;;;;5.64;100.00;101007.66;4924941;29;20385;-82
2024/02/01 10:07:00;;;;;;;;;;;;;;;5.69;100.00;101001.50;4925676;29;19973;-82
2024/02/01 10:09:26;;;;;;;;;;;;;;;5.62;100.00;100998.91;4924991;29;19915;-76
2024/02/01 10:11:51;;;;;;;;;;;;;;;5.61;100.00;100999.75;4924873;29;20359;-76
2024/02/01 10:14:17;;;;;;;;;;;;;;;5.58;100.00;101004.16;4925055;29;20366;-76
2024/02/01 10:16:42;;;;;;;;;;;;;;;5.59;100.00;101003.31;4925406;29;19927;-76
2024/02/01 10:19:10;;;;;;;;;;;;;;;5.67;100.00;101004.16;4923729;29;20359;-81
2024/02/01 10:21:35;;;;;;;;;;;;;;;5.59;100.00;101004.16;4907374;29;19920;-81
2024/02/01 10:24:04;;;;;;;;;;;;;;;5.57;100.00;101003.31;4924030;29;19919;-81
2024/02/01 10:26:30;;;;;;;;;;;;;;;5.69;100.00;101007.63;4925318;29;19919;-79
2024/02/01 10:28:56;;;;;;;;;;;;;;;5.66;100.00;101017.28;4924803;29;19926;-82
2024/02/01 10:31:21;;;;;;;;;;;;;;;5.67;100.00;101021.69;4925185;29;20377;-80
2024/02/01 10:33:48;;;;;;;;;;;;;;;5.70;100.00;101024.31;4923824;29;19923;-87
2024/02/01 10:36:20;;;;;;;;;;;;;;;5.64;100.00;101028.69;4927239;29;20009;-81
2024/02/01 10:38:47;;;;;;;;;;;;;;;5.64;100.00;101025.19;4927943;29;20376;-83
2024/02/01 10:41:14;;;;;;;;;;;;;;;5.71;100.00;101024.31;4928660;29;20282;-82
2024/02/01 10:43:44;;;;;;;;;;;;;;;5.64;100.00;101012.91;4928323;29;20298;-81
2024/02/01 10:46:10;;;;;;;;;;;;;;;5.63;100.00;101020.78;4918856;29;19923;-84
2024/02/01 10:48:54;;;;;;;;;;;;;;;5.66;100.00;101019.94;4926855;29;19945;-81
2024/02/01 10:51:20;;;;;;;;;;;;;;;5.64;100.00;101012.91;4928032;29;19923;-78
2024/02/01 10:53:46;;;;;;;;;;;;;;;5.63;100.00;101012.91;4928624;29;19923;-80
2024/02/01 10:56:14;;;;;;;;;;;;;;;5.68;100.00;101028.69;4928583;29;19938;-86
2024/02/01 10:58:42;;;;;;;;;;;;;;;5.63;100.00;101021.69;4928018;29;19922;-87
2024/02/01 11:01:07;;;;;;;;;;;;;;;5.65;100.00;101024.31;4927653;29;20045;-81
2024/02/01 11:03:32;;;;;;;;;;;;;;;5.69;100.00;101015.53;4926648;29;20019;-84
2024/02/01 11:05:58;;;;;;;;;;;;;;;5.70;100.00;101022.53;4928316;29;19919;-86
2024/02/01 11:08:30;;;;;;;;;;;;;;;5.66;100.00;101018.16;4927889;29;19915;-87
2024/02/01 11:11:00;;;;;;;;;;;;;;;5.62;100.00;101019.94;4927177;29;19974;-82
2024/02/01 11:13:29;;;;;;;;;;;;;;;5.62;100.00;101012.03;4926910;29;20390;-80
2024/02/01 11:15:55;;;;;;;;;;;;;;;5.63;100.00;101013.81;4927891;29;20349;-88
2024/02/01 11:18:20;;;;;;;;;;;;;;;5.60;100.00;101019.06;4926772;29;20018;-83
2024/02/01 11:20:55;;;;;;;;;;;;;;;5.68;100.00;101013.78;4927481;29;19919;-84
2024/02/01 11:23:21;;;;;;;;;;;;;;;5.61;100.00;101023.44;4927588;29;19970;-85
2024/02/01 11:25:49;;;;;;;;;;;;;;;5.69;100.00;101033.06;4927885;29;19958;-88
2024/02/01 11:28:24;;;;;;;;;;;;;;;5.72;100.00;101035.69;4910271;29;20391;-84
2024/02/01 11:30:52;;;;;;;;;;;;;;;5.66;100.00;101035.72;4926951;29;19923;-83
2024/02/01 11:33:19;;;;;;;;;;;;;;;5.69;100.00;101026.03;4926644;29;19926;-86
2024/02/01 11:35:45;;;;;;;;;;;;;;;5.63;100.00;101028.69;4927515;29;20386;-83
2024/02/01 11:38:11;;;;;;;;;;;;;;;5.67;100.00;101019.91;4910335;29;19973;-82
2024/02/01 11:40:37;;;;;;;;;;;;;;;5.71;100.00;101034.81;4927075;29;19962;-81
2024/02/01 11:43:02;;;;;;;;;;;;;;;5.70;100.00;101037.47;4927531;29;19926;-85
2024/02/01 11:45:27;;;;;;;;;;;;;;;5.69;100.00;101031.31;4917604;29;19923;-86
2024/02/01 11:47:53;;;;;;;;;;;;;;;5.69;100.00;101036.56;4925463;29;19919;-85
2024/02/01 11:50:23;;;;;;;;;;;;;;;5.68;100.00;101034.84;4927080;29;20037;-82
2024/02/01 11:53:05;;;;;;;;;;;;;;;5.67;100.00;101026.94;4926000;29;19925;-86
2024/02/01 11:55:30;;;;;;;;;;;;;;;5.64;100.00;101017.31;4909676;29;19915;-84
2024/02/01 11:57:57;;;;;;;;;;;;;;;5.63;100.00;101013.81;4927689;29;19926;-80
2024/02/01 12:00:24;;;;;;;;;;;;;;;5.65;100.00;101016.44;4926946;29;20020;-83
2024/02/01 12:02:50;;;;;;;;;;;;;;;5.67;100.00;101019.06;4908481;29;19919;-77
2024/02/01 12:05:18;;;;;;;;;;;;;;;5.64;100.00;101014.66;4910267;29;19923;-85
2024/02/01 12:07:44;;;;;;;;;;;;;;;5.68;100.00;101021.69;4927887;29;19991;-79
2024/02/01 12:10:13;;;;;;;;;;;;;;;5.69;100.00;101012.03;4925790;29;19919;-82
2024/02/01 12:12:44;;;;;;;;;;;;;;;5.67;100.00;101004.16;4926882;29;19926;-79
2024/02/01 12:15:10;;;;;;;;;;;;;;;5.67;100.00;101000.66;4925939;29;20011;-83
2024/02/01 12:17:42;;;;;;;;;;;;;;;5.70;100.00;100993.63;4925107;29;19984;-83
2024/02/01 12:20:08;;;;;;;;;;;;;;;5.72;100.00;100989.22;4926917;29;19918;-83
2024/02/01 12:22:33;;;;;;;;;;;;;;;5.73;100.00;100990.13;4926797;29;20014;-82
2024/02/01 12:24:59;;;;;;;;;;;;;;;5.72;100.00;100991.84;4926592;29;20397;-84
2024/02/01 12:27:24;;;;;;;;;;;;;;;5.69;100.00;100986.59;4927218;29;19926;-77
2024/02/01 12:29:49;;;;;;;;;;;;;;;5.74;100.00;100983.94;4926967;29;19926;-77
2024/02/01 12:32:15;;;;;;;;;;;;;;;5.75;100.00;100996.22;4925318;29;20467;-78
2024/02/01 12:34:41;;;;;;;;;;;;;;;5.70;100.00;100993.63;4916987;29;19919;-80
2024/02/01 12:37:08;;;;;;;;;;;;;;;5.69;100.00;100997.13;4926685;29;19974;-81
2024/02/01 12:39:36;;;;;;;;;;;;;;;5.67;100.00;100990.13;4909282;29;19930;-78
2024/02/01 12:42:03;;;;;;;;;;;;;;;5.69;100.00;100985.72;4925633;29;19983;-86
2024/02/01 12:44:33;;;;;;;;;;;;;;;5.73;100.00;100990.97;4926304;29;19923;-80
2024/02/01 12:46:59;;;;;;;;;;;;;;;5.72;100.00;100993.63;4908777;29;20370;-88
2024/02/01 12:49:24;;;;;;;;;;;;;;;5.74;100.00;100994.47;4907160;29;19918;-80
2024/02/01 12:51:49;;;;;;;;;;;;;;;5.72;100.00;101001.50;4908774;29;19926;-77
2024/02/01 12:54:15;;;;;;;;;;;;;;;5.67;100.00;101000.66;4926475;29;19923;-82
2024/02/01 12:56:40;;;;;;;;;;;;;;;5.67;100.00;100998.03;4916190;29;20017;-83
2024/02/01 12:59:09;;;;;;;;;;;;;;;5.75;100.00;101004.13;4908441;29;19919;-80
2024/02/01 13:01:37;;;;;;;;;;;;;;;5.74;100.00;100992.72;4925283;29;19923;-84
2024/02/01 13:04:03;;;;;;;;;;;;;;;5.71;100.00;101005.00;4923379;29;19923;-82
2024/02/01 13:06:29;;;;;;;;;;;;;;;5.70;100.00;100998.88;4925126;29;19931;-79
2024/02/01 13:08:54;;;;;;;;;;;;;;;5.71;100.00;100995.38;4925476;29;20287;-80
2024/02/01 13:11:27;;;;;;;;;;;;;;;5.68;100.00;100989.22;4925609;29;19925;-83
2024/02/01 13:13:55;;;;;;;;;;;;;;;5.73;100.00;100995.38;4924927;29;19923;-78
2024/02/01 13:16:22;;;;;;;;;;;;;;;5.72;100.00;100999.72;4925878;29;19926;-78
2024/02/01 13:18:47;;;;;;;;;;;;;;;5.74;100.00;100994.47;4922325;29;19938;-77
2024/02/01 13:21:12;;;;;;;;;;;;;;;5.74;100.00;100989.22;4922984;29;19923;-77
2024/02/01 13:23:46;;;;;;;;;;;;;;;5.79;100.00;100988.31;4924996;29;19923;-79
2024/02/01 13:26:11;;;;;;;;;;;;;;;5.71;100.00;100989.22;4924516;29;20413;-82
2024/02/01 13:28:38;;;;;;;;;;;;;;;5.70;100.00;100992.75;4925180;29;19927;-82
2024/02/01 13:31:04;;;;;;;;;;;;;;;5.73;100.00;100987.47;4924368;29;19927;-85
2024/02/01 13:33:29;;;;;;;;;;;;;;;5.72;100.00;100996.25;4924521;29;19973;-82
2024/02/01 13:35:55;;;;;;;;;;;;;;;5.74;100.00;101000.59;4925391;29;19919;-85
2024/02/01 13:38:20;;;;;;;;;;;;;;;5.78;100.00;101007.59;4925472;29;20354;-83
2024/02/01 13:40:48;;;;;;;;;;;;;;;5.74;100.00;100994.47;4915954;29;19919;-77
2024/02/01 13:43:14;;;;;;;;;;;;;;;5.74;100.00;100991.84;4925559;29;20005;-78
2024/02/01 13:45:39;;;;;;;;;;;;;;;5.70;100.00;100998.00;4925585;29;19990;-79
2024/02/01 13:48:05;;;;;;;;;;;;;;;5.76;100.00;100992.69;4924165;29;19915;-77
2024/02/01 13:50:30;;;;;;;;;;;;;;;5.73;100.00;100995.38;4925587;29;20438;-77
2024/02/01 13:52:56;;;;;;;;;;;;;;;5.69;100.00;100996.25;4924984;29;19923;-79
2024/02/01 13:55:25;;;;;;;;;;;;;;;5.64;100.00;100993.63;4926123;29;19946;-79
2024/02/01 13:57:51;;;;;;;;;;;;;;;5.69;100.00;100998.88;4926112;29;19923;-77
2024/02/01 14:00:17;;;;;;;;;;;;;;;5.67;100.00;100990.13;4924983;29;19915;-80
2024/02/01 14:02:45;;;;;;;;;;;;;;;5.73;100.00;100998.00;4906765;29;19957;-77
2024/02/01 14:05:11;;;;;;;;;;;;;;;5.70;100.00;100998.88;4924882;29;20303;-80
2024/02/01 14:07:36;;;;;;;;;;;;;;;5.69;100.00;100997.13;4907911;29;19919;-80
2024/02/01 14:10:03;;;;;;;;;;;;;;;5.73;100.00;100992.75;4909055;29;19979;-79
2024/02/01 14:12:29;;;;;;;;;;;;;;;5.72;100.00;101001.50;4927957;29;19923;-81
2024/02/01 14:14:54;;;;;;;;;;;;;;;5.78;100.00;101004.97;4919498;29;20431;-84
2024/02/01 14:17:19;;;;;;;;;;;;;;;5.77;100.00;101012.88;4927114;29;19930;-82
2024/02/01 14:19:45;;;;;;;;;;;;;;;5.72;100.00;101014.66;4929365;29;19923;-79
2024/02/01 14:22:10;;;;;;;;;;;;;;;5.77;100.00;101010.25;4928456;29;20302;-76
2024/02/01 14:24:35;;;;;;;;;;;;;;;5.71;100.00;101008.53;4928743;29;19919;-78
2024/02/01 14:27:01;;;;;;;;;;;;;;;5.74;100.00;101020.78;4911650;29;19923;-82
2024/02/01 14:29:26;;;;;;;;;;;;;;;5.67;100.00;101008.53;4911805;29;19963;-81
2024/02/01 14:31:51;;;;;;;;;;;;;;;5.72;100.00;101004.13;4910808;29;19927;-82
2024/02/01 14:34:17;;;;;;;;;;;;;;;5.68;100.00;101005.00;4928213;29;19919;-79
2024/02/01 14:36:43;;;;;;;;;;;;;;;5.73;100.00;101005.91;4928457;29;19970;-79
2024/02/01 14:39:24;;;;;;;;;;;;;;;5.67;100.00;101012.03;4928292;29;19926;-80
2024/02/01 14:41:50;;;;;;;;;;;;;;;5.69;100.00;101012.91;4928807;29;19919;-80
2024/02/01 14:44:16;;;;;;;;;;;;;;;5.70;100.00;101011.16;4928456;29;19923;-82
2024/02/01 14:46:41;;;;;;;;;;;;;;;5.67;100.00;101019.06;4927333;29;19919;-79
2024/02/01 14:49:06;;;;;;;;;;;;;;;5.67;100.00;101017.28;4926884;29;19922;-77
2024/02/01 14:51:31;;;;;;;;;;;;;;;5.70;100.00;101019.91;4928686;29;19926;-78
2024/02/01 14:53:57;;;;;;;;;;;;;;;5.62;100.00;101026.97;4928403;29;19959;-81
2024/02/01 14:56:22;;;;;;;;;;;;;;;5.66;100.00;101025.19;4927961;29;19919;-81
2024/02/01 14:58:47;;;;;;;;;;;;;;;5.73;100.00;101029.56;4928052;29;20407;-80
2024/02/01 15:01:13;;;;;;;;;;;;;;;5.68;100.00;101029.56;4928801;29;20270;-80
2024/02/01 15:03:38;;;;;;;;;;;;;;;5.69;100.00;101028.69;4906269;29;19931;-79
2024/02/01 15:06:04;;;;;;;;;;;;;;;5.66;100.00;101030.44;4908839;29;19931;-80
2024/02/01 15:08:29;;;;;;;;;;;;;;;5.66;100.00;101035.72;4909237;29;19919;-77
2024/02/01 15:10:54;;;;;;;;;;;;;;;5.64;100.00;101039.19;4908851;29;20502;-82
2024/02/01 15:13:20;;;;;;;;;;;;;;;5.66;100.00;101038.34;4909238;29;20363;-81
2024/02/01 15:15:45;;;;;;;;;;;;;;;5.63;100.00;101050.63;4909454;29;20255;-82
2024/02/01 15:18:10;;;;;;;;;;;;;;;5.63;100.00;101045.38;4906539;29;19935;-79
2024/02/01 15:20:37;;;;;;;;;;;;;;;5.65;100.00;101053.25;4908575;29;19960;-78
2024/02/01 15:23:03;;;;;;;;;;;;;;;5.67;100.00;101051.47;4909066;29;19927;-81
2024/02/01 15:25:29;;;;;;;;;;;;;;;5.64;100.00;101052.34;4909148;29;20443;-81
2024/02/01 15:27:55;;;;;;;;;;;;;;;5.63;100.00;101058.50;4908123;29;20312;-77
2024/02/01 15:30:20;;;;;;;;;;;;;;;5.61;100.00;101062.88;4908521;29;19919;-79
2024/02/01 15:32:46;;;;;;;;;;;;;;;5.62;100.00;101058.50;4908085;29;19923;-82
2024/02/01 15:35:11;;;;;;;;;;;;;;;5.63;100.00;101060.25;4908585;29;20367;-81
2024/02/01 15:37:37;;;;;;;;;;;;;;;5.64;100.00;101062.88;4908431;29;19923;-82
2024/02/01 15:40:02;;;;;;;;;;;;;;;5.65;100.00;101053.25;4908724;29;19919;-81
2024/02/01 15:42:28;;;;;;;;;;;;;;;5.63;100.00;101055.88;4908966;29;20291;-80
2024/02/01 15:44:53;;;;;;;;;;;;;;;5.64;100.00;101060.25;4908369;29;20010;-81
2024/02/01 15:47:20;;;;;;;;;;;;;;;5.62;100.00;101059.38;4906943;29;20364;-80
2024/02/01 15:49:47;;;;;;;;;;;;;;;5.64;100.00;101064.63;4908749;29;19919;-78
2024/02/01 15:52:14;;;;;;;;;;;;;;;5.71;100.00;101065.50;4908224;29;19919;-80
2024/02/01 15:54:39;;;;;;;;;;;;;;;5.67;100.00;101074.28;4908052;29;20371;-83
2024/02/01 15:57:04;;;;;;;;;;;;;;;5.65;100.00;101074.28;4908341;29;19919;-78
2024/02/01 15:59:30;;;;;;;;;;;;;;;5.62;100.00;101075.16;4908477;29;19919;-79
2024/02/01 16:01:55;;;;;;;;;;;;;;;5.61;100.00;101081.28;4908003;29;19920;-79
2024/02/01 16:04:20;;;;;;;;;;;;;;;5.61;100.00;101089.16;4915827;29;19978;-78
2024/02/01 16:06:45;;;;;;;;;;;;;;;5.66;100.00;101090.94;4927300;29;20009;-76
2024/02/01 16:09:12;;;;;;;;;;;;;;;5.63;100.00;101103.22;4926957;29;19926;-76
2024/02/01 16:11:38;;;;;;;;;;;;;;;5.55;100.00;101104.97;4926459;29;19919;-79
2024/02/01 16:14:08;;;;;;;;;;;;;;;5.61;100.00;101114.59;4926895;29;20271;-85
2024/02/01 16:16:43;;;;;;;;;;;;;;;5.60;100.00;101111.09;4926680;29;20051;-81
2024/02/01 16:19:17;;;;;;;;;;;;;;;5.58;100.00;101104.09;4924372;29;19926;-80
2024/02/01 16:21:42;;;;;;;;;;;;;;;5.56;100.00;101103.22;4926280;29;20403;-78
2024/02/01 16:24:09;;;;;;;;;;;;;;;5.59;100.00;101101.47;4925227;29;19925;-83
2024/02/01 16:26:36;;;;;;;;;;;;;;;5.57;100.00;101103.22;4926595;29;20005;-77
2024/02/01 16:29:02;;;;;;;;;;;;;;;5.63;100.00;101103.22;4924837;29;19927;-83
2024/02/01 16:31:27;;;;;;;;;;;;;;;5.58;100.00;101110.22;4909039;29;19930;-80
2024/02/01 16:34:15;;;;;;;;;;;;;;;5.60;100.00;101107.56;4924808;29;19930;-82
2024/02/01 16:36:58;;;;;;;;;;;;;;;5.59;100.00;101111.97;4925750;29;19926;-83
2024/02/01 16:39:32;;;;;;;;;;;;;;;5.60;100.00;101119.00;4925627;29;20013;-82
2024/02/01 16:42:00;;;;;;;;;;;;;;;5.58;100.00;101118.09;4924769;29;20362;-83
2024/02/01 16:44:41;;;;;;;;;;;;;;;5.62;100.00;101106.72;4924821;29;20031;-85
2024/02/01 16:47:14;;;;;;;;;;;;;;;5.61;100.00;101120.72;4924273;29;20391;-79
2024/02/01 16:49:40;;;;;;;;;;;;;;;5.59;100.00;101122.50;4908318;29;19965;-79
2024/02/01 16:52:12;;;;;;;;;;;;;;;5.59;100.00;101117.22;4926164;29;19951;-83
2024/02/01 16:54:37;;;;;;;;;;;;;;;5.57;100.00;101121.63;4924743;29;19923;-79
2024/02/01 16:57:04;;;;;;;;;;;;;;;5.56;100.00;101125.13;4926130;29;20294;-84
2024/02/01 16:59:30;;;;;;;;;;;;;;;5.59;100.00;101137.41;4924126;29;19931;-78
2024/02/01 17:01:56;;;;;;;;;;;;;;;5.56;100.00;101137.41;4925346;29;20017;-82
2024/02/01 17:04:32;;;;;;;;;;;;;;;5.57;100.00;101147.06;4902486;29;19975;-78
2024/02/01 17:06:58;;;;;;;;;;;;;;;5.57;100.00;101134.78;4906402;29;20356;-83
2024/02/01 17:09:25;;;;;;;;;;;;;;;5.59;100.00;101140.91;4907291;29;20021;-83
2024/02/01 17:11:54;;;;;;;;;;;;;;;5.59;100.00;101142.66;4905023;29;19966;-77
2024/02/01 17:14:19;;;;;;;;;;;;;;;5.59;100.00;101143.53;4905751;29;19931;-80
2024/02/01 17:16:59;;;;;;;;;;;;;;;5.59;100.00;101151.41;4906227;29;19927;-81
2024/02/01 17:19:29;;;;;;;;;;;;;;;5.57;100.00;101149.69;4904675;29;19923;-83
2024/02/01 17:21:54;;;;;;;;;;;;;;;5.62;100.00;101151.41;4905862;29;19931;-79
2024/02/01 17:24:21;;;;;;;;;;;;;;;5.55;100.00;101154.94;4905718;29;19930;-81
2024/02/01 17:26:47;;;;;;;;;;;;;;;5.58;100.00;101154.91;4905619;29;19994;-79
2024/02/01 17:29:17;;;;;;;;;;;;;;;5.57;100.00;101158.44;4904968;29;20367;-77
2024/02/01 17:31:43;;;;;;;;;;;;;;;5.59;100.00;101159.31;4906367;29;19923;-78
2024/02/01 17:34:25;;;;;;;;;;;;;;;5.59;100.00;101168.94;4905174;29;20025;-78
2024/02/01 17:36:51;;;;;;;;;;;;;;;5.57;100.00;101176.84;4906508;29;19923;-80
2024/02/01 17:39:22;;;;;;;;;;;;;;;5.56;100.00;101180.34;4906264;29;19987;-80
2024/02/01 17:41:48;;;;;;;;;;;;;;;5.61;100.00;101183.84;4905998;29;19923;-81
2024/02/01 17:44:25;;;;;;;;;;;;;;;5.61;100.00;101177.72;4903226;29;19986;-81
2024/02/01 17:46:51;;;;;;;;;;;;;;;5.58;100.00;101178.56;4902978;29;20407;-80
2024/02/01 17:49:29;;;;;;;;;;;;;;;5.52;100.00;101178.59;4902529;29;20039;-77
2024/02/01 17:51:55;;;;;;;;;;;;;;;5.57;100.00;101179.47;4905332;29;19919;-80
2024/02/01 17:54:31;;;;;;;;;;;;;;;5.59;100.00;101176.84;4903360;29;20301;-78
2024/02/01 17:56:56;;;;;;;;;;;;;;;5.55;100.00;101189.13;4903522;29;19984;-78
2024/02/01 17:59:33;;;;;;;;;;;;;;;5.55;100.00;101189.13;4905196;29;19931;-82
2024/02/01 18:01:58;;;;;;;;;;;;;;;5.54;100.00;101182.09;4903451;29;19923;-82
2024/02/01 18:04:32;;;;;;;;;;;;;;;5.56;100.00;101179.47;4914741;29;19930;-81
2024/02/01 18:07:00;;;;;;;;;;;;;;;5.60;100.00;101196.97;4886161;29;19934;-79
2024/02/01 18:09:32;;;;;;;;;;;;;;;5.58;100.00;101198.75;4887248;29;19923;-82
2024/02/01 18:12:01;;;;;;;;;;;;;;;5.54;100.00;101197.88;4885362;29;19971;-78
2024/02/01 18:14:27;;;;;;;;;;;;;;;5.53;100.00;101209.25;4883115;29;20074;-78
2024/02/01 18:16:52;;;;;;;;;;;;;;;5.59;100.00;101206.63;4886758;29;20018;-78
2024/02/01 18:19:19;;;;;;;;;;;;;;;5.55;100.00;101214.53;4881135;29;20359;-79
2024/02/01 18:21:44;;;;;;;;;;;;;;;5.57;100.00;101210.16;4886212;29;20031;-81
2024/02/01 18:24:19;;;;;;;;;;;;;;;5.51;100.00;101218.91;4884247;29;20387;-85
2024/02/01 18:26:44;;;;;;;;;;;;;;;5.59;100.00;101214.53;4886718;29;19924;-83
2024/02/01 18:29:13;;;;;;;;;;;;;;;5.53;100.00;101211.88;4885665;29;19924;-76
2024/02/01 18:31:39;;;;;;;;;;;;;;;5.55;100.00;101218.03;4880244;29;19950;-80
2024/02/01 18:34:04;;;;;;;;;;;;;;;5.57;100.00;101218.06;4883869;29;20371;-78
2024/02/01 18:36:33;;;;;;;;;;;;;;;5.57;100.00;101208.41;4915565;29;19949;-78
2024/02/01 18:39:04;;;;;;;;;;;;;;;5.52;100.00;101210.16;4885913;29;20300;-80
2024/02/01 18:41:33;;;;;;;;;;;;;;;5.52;100.00;101217.16;4886434;29;19927;-82
2024/02/01 18:44:10;;;;;;;;;;;;;;;5.51;100.00;101212.78;4887025;29;19924;-79
2024/02/01 18:46:49;;;;;;;;;;;;;;;5.54;100.00;101215.41;4885715;29;19931;-77
2024/02/01 18:49:15;;;;;;;;;;;;;;;5.57;100.00;101220.69;4885886;29;20283;-83
2024/02/01 18:51:49;;;;;;;;;;;;;;;5.58;100.00;101222.41;4886038;29;19979;-84
2024/02/01 18:54:14;;;;;;;;;;;;;;;5.50;100.00;101229.41;4886194;29;19928;-86
2024/02/01 18:56:43;;;;;;;;;;;;;;;5.54;100.00;101250.47;4887059;29;19924;-84
2024/02/01 18:59:08;;;;;;;;;;;;;;;5.52;100.00;101246.06;4888050;29;19923;-85
2024/02/01 19:01:34;;;;;;;;;;;;;;;5.58;100.00;101251.34;4887397;29;19923;-80
2024/02/01 19:04:01;;;;;;;;;;;;;;;5.58;100.00;101248.72;4901605;29;19970;-81
2024/02/01 19:06:26;;;;;;;;;;;;;;;5.53;100.00;101245.19;4908890;29;20276;-81
2024/02/01 19:08:52;;;;;;;;;;;;;;;5.50;100.00;101247.81;4926335;29;19929;-82
2024/02/01 19:11:17;;;;;;;;;;;;;;;5.53;100.00;101243.44;4928609;29;19923;-81
2024/02/01 19:13:49;;;;;;;;;;;;;;;5.59;100.00;101247.84;4927790;29;19958;-80
2024/02/01 19:16:16;;;;;;;;;;;;;;;5.48;100.00;101234.69;4927315;29;20390;-80
2024/02/01 19:18:42;;;;;;;;;;;;;;;5.56;100.00;101234.69;4909351;29;19927;-84
2024/02/01 19:21:07;;;;;;;;;;;;;;;5.56;100.00;101235.56;4927831;29;20401;-81
2024/02/01 19:23:33;;;;;;;;;;;;;;;5.57;100.00;101229.44;4927582;29;20386;-81
2024/02/01 19:25:58;;;;;;;;;;;;;;;5.54;100.00;101236.44;4925323;29;19919;-78
2024/02/01 19:28:26;;;;;;;;;;;;;;;5.59;100.00;101232.06;4926280;29;19927;-81
2024/02/01 19:30:53;;;;;;;;;;;;;;;5.55;100.00;101232.91;4928037;29;19942;-81
2024/02/01 19:33:23;;;;;;;;;;;;;;;5.53;100.00;101238.19;4925459;29;19922;-81
2024/02/01 19:35:49;;;;;;;;;;;;;;;5.49;100.00;101241.69;4927701;29;19962;-82
2024/02/01 19:38:17;;;;;;;;;;;;;;;5.53;100.00;101237.31;4927575;29;20029;-78
2024/02/01 19:40:46;;;;;;;;;;;;;;;5.57;100.00;101239.09;4926413;29;20378;-79
2024/02/01 19:43:12;;;;;;;;;;;;;;;5.53;100.00;101243.44;4927860;29;19919;-77
2024/02/01 19:45:37;;;;;;;;;;;;;;;5.54;100.00;101242.56;4925049;29;19929;-79
2024/02/01 19:48:02;;;;;;;;;;;;;;;5.57;100.00;101239.94;4925217;29;19927;-80
2024/02/01 19:50:28;;;;;;;;;;;;;;;5.55;100.00;101244.34;4924740;29;19978;-79
2024/02/01 19:52:53;;;;;;;;;;;;;;;5.51;100.00;101237.31;4927465;29;20309;-77
2024/02/01 19:55:18;;;;;;;;;;;;;;;5.51;100.00;101239.06;4927246;29;20038;-77
2024/02/01 19:57:44;;;;;;;;;;;;;;;5.52;100.00;101239.06;4926738;29;19926;-79
2024/02/01 20:00:09;;;;;;;;;;;;;;;5.56;100.00;101242.56;4926080;29;19918;-81
2024/02/01 20:02:34;;;;;;;;;;;;;;;5.49;100.00;101249.59;4925476;29;19929;-82
2024/02/01 20:04:59;;;;;;;;;;;;;;;5.50;100.00;101261.84;4925979;29;20375;-80
2024/02/01 20:07:25;;;;;;;;;;;;;;;5.51;100.00;101263.59;4925865;29;19946;-80
2024/02/01 20:09:53;;;;;;;;;;;;;;;5.52;100.00;101275.00;4926644;29;19915;-79
2024/02/01 20:12:19;;;;;;;;;;;;;;;5.49;100.00;101283.78;4925826;29;19927;-80
2024/02/01 20:14:44;;;;;;;;;;;;;;;5.49;100.00;101278.50;4925325;29;19969;-81
2024/02/01 20:17:10;;;;;;;;;;;;;;;5.51;100.00;101274.13;4925732;29;19974;-78
2024/02/01 20:19:35;;;;;;;;;;;;;;;5.51;100.00;101270.63;4926822;29;19918;-81
2024/02/01 20:22:05;;;;;;;;;;;;;;;5.53;100.00;101277.63;4925058;29;20374;-81
2024/02/01 20:24:30;;;;;;;;;;;;;;;5.52;100.00;101278.50;4925148;29;19923;-77
2024/02/01 20:26:56;;;;;;;;;;;;;;;5.52;100.00;101299.56;4924934;29;19930;-76
2024/02/01 20:29:22;;;;;;;;;;;;;;;5.51;100.00;101300.41;4924805;29;19927;-80
2024/02/01 20:31:47;;;;;;;;;;;;;;;5.55;100.00;101302.19;4925544;29;19930;-79
2024/02/01 20:34:25;;;;;;;;;;;;;;;5.56;100.00;101301.28;4925246;29;19922;-77
2024/02/01 20:36:51;;;;;;;;;;;;;;;5.54;100.00;101296.94;4925160;29;19987;-77
2024/02/01 20:39:29;;;;;;;;;;;;;;;5.47;100.00;101290.75;4924516;29;20022;-80
2024/02/01 20:41:56;;;;;;;;;;;;;;;5.45;100.00;101293.38;4925207;29;19919;-77
2024/02/01 20:44:42;;;;;;;;;;;;;;;5.49;100.00;101289.03;4924993;29;19923;-80
2024/02/01 20:47:10;;;;;;;;;;;;;;;5.53;100.00;101285.50;4922479;29;19919;-78
2024/02/01 20:49:35;;;;;;;;;;;;;;;5.48;100.00;101283.75;4924983;29;19922;-78
2024/02/01 20:52:05;;;;;;;;;;;;;;;5.51;100.00;101292.53;4925461;29;19923;-77
2024/02/01 20:54:49;;;;;;;;;;;;;;;5.45;100.00;101289.88;4923884;29;20397;-77
2024/02/01 20:57:29;;;;;;;;;;;;;;;5.49;100.00;101280.25;4925733;29;20426;-82
2024/02/01 20:59:55;;;;;;;;;;;;;;;5.50;100.00;101284.63;4924921;29;19958;-77
2024/02/01 21:02:26;;;;;;;;;;;;;;;5.51;100.00;101279.38;4923425;29;19982;-77
2024/02/01 21:04:51;;;;;;;;;;;;;;;5.49;100.00;101281.13;4926017;29;19934;-77
2024/02/01 21:07:17;;;;;;;;;;;;;;;5.55;100.00;101283.78;4925258;29;19919;-81
2024/02/01 21:09:46;;;;;;;;;;;;;;;5.49;100.00;101278.50;4926206;29;19983;-77
2024/02/01 21:12:11;;;;;;;;;;;;;;;5.50;100.00;101274.13;4924674;29;19950;-76
2024/02/01 21:14:42;;;;;;;;;;;;;;;5.53;100.00;101282.88;4925569;29;19919;-82